Lloydminster Airport
CYLL : now visible

Airfield :











YOU CAN JOIN US ON...

 
LOGIN :

Register | Disclaimer

   EN    FR    IT 

 









Legend :    VFR   Marginal VFR   IFR   Intensive IFR   Very Intensive IFR
Visi :
Ceiling :
>= 8 km
>= 3000ft
5 to 8 km
1000 to 3000 ft
1500m to 5 km
500 to 1000 ft
800 to 1500m
200 to 500 ft
< 800m
< 200 ft
Symbols :   Thunderstorms  Fog  Heavy snow  Heavy precipitations  Wind > 20 kt






- Airport Elevation : 2193 ft
- IATA code : YLL


CYLL - Lloydminster

CURRENT METAR :
  • 080700Z AUTO 05006KT 9SM CLR M20/M23 A3001 RMK SLP222

EXPIRED METARs :
  • 080600Z AUTO 05006KT 9SM CLR M19/M22 A3001 RMK SLP222
  • 080500Z 04006KT 15SM FEW170 M18/M21 A3001 RMK AC2 LAST STFD OBS/NEXT 081400 UTC SLP218

TAF TAF CYLL
Valid from the 08 at 06:00 until the 08 at 18:00 UTC


080541Z 0806/0818 02006KT P6SM FEW012 SCT120
BECMG 0806/0808 VRB03KT
BECMG 0814/0816 20010KT RMK FCST BASED ON AUTO OBS. NXT FCST BY 081200Z



MET'MAP, your aeronautical weather chart ! - Copyright ORBIFLY December 2007 - Disclaimer

ORBIFLY MET'MAP TEAM :

Programming & Development : Alexandra Zaïnal
Concept & original design : Baudouin d'Aumeries
Assistance for programming : Marc-Olivier Méhu
Technical & hardware support : Manuel Goepfert

Contact : metmap@orbifly.com




SOURCES & CREDITS :

   NOAA       Earth
Advisory